TAP238 GCFV-LPPT
Flight info
| Callsign | TAP238 |
|---|---|
| Flight time | N/A |
| Altitude | 38000 |
| Route | VASTO UN858 SULAM DCT BAROK DCT NAKOS |
| Aircraft | E190/M-SDE3GILORVW/S |
Departure
| Time | N/A |
|---|---|
| Airport | Fuerteventura Airport (GCFV) |
Arrival
| Time | 2026-05-05 18:41 |
|---|---|
| Airport | Lisbon Humberto Delgado Airport (LPPT) |
| Time | Latitude | Longitude | Altitude | Speed | Heading |
|---|---|---|---|---|---|
| 2026-05-05 18:06 | 36.23750 | -9.93376 | 38100 ft | 473 kts | 10° |
| 2026-05-05 18:06 | 36.30840 | -9.91018 | 38106 ft | 473 kts | 10° |
| 2026-05-05 18:07 | 36.37202 | -9.88902 | 38105 ft | 473 kts | 10° |
| 2026-05-05 18:07 | 36.43557 | -9.86784 | 38108 ft | 473 kts | 10° |
| 2026-05-05 18:08 | 36.49870 | -9.84678 | 38097 ft | 473 kts | 9° |
| 2026-05-05 18:08 | 36.56270 | -9.82898 | 38106 ft | 472 kts | 8° |
| 2026-05-05 18:09 | 36.62579 | -9.80470 | 38098 ft | 474 kts | 12° |
| 2026-05-05 18:09 | 36.68981 | -9.78703 | 38109 ft | 472 kts | 8° |
| 2026-05-05 18:10 | 36.75383 | -9.76908 | 38094 ft | 472 kts | 8° |
| 2026-05-05 18:10 | 36.81740 | -9.75112 | 38104 ft | 472 kts | 8° |
| 2026-05-05 18:11 | 36.88143 | -9.73300 | 38097 ft | 472 kts | 8° |
| 2026-05-05 18:11 | 36.94544 | -9.71485 | 38107 ft | 472 kts | 8° |
| 2026-05-05 18:12 | 37.00943 | -9.69666 | 38078 ft | 472 kts | 8° |
| 2026-05-05 18:12 | 37.04158 | -9.68754 | 37389 ft | 474 kts | 8° |
| 2026-05-05 18:12 | 37.07369 | -9.67837 | 36583 ft | 471 kts | 8° |
| 2026-05-05 18:12 | 37.10556 | -9.66931 | 35710 ft | 469 kts | 8° |
| 2026-05-05 18:13 | 37.13694 | -9.66037 | 34862 ft | 467 kts | 8° |
| 2026-05-05 18:13 | 37.16858 | -9.65133 | 34020 ft | 465 kts | 8° |
| 2026-05-05 18:13 | 37.19998 | -9.64238 | 33092 ft | 463 kts | 8° |
| 2026-05-05 18:13 | 37.23159 | -9.63333 | 32183 ft | 468 kts | 8° |
| 2026-05-05 18:14 | 37.26364 | -9.62419 | 31319 ft | 475 kts | 8° |
| 2026-05-05 18:14 | 37.29591 | -9.61493 | 30476 ft | 478 kts | 8° |
| 2026-05-05 18:14 | 37.32841 | -9.60562 | 29588 ft | 479 kts | 7° |
| 2026-05-05 18:14 | 37.36093 | -9.59629 | 28629 ft | 479 kts | 8° |
| 2026-05-05 18:15 | 37.39339 | -9.58699 | 27720 ft | 476 kts | 8° |
| 2026-05-05 18:15 | 37.42535 | -9.57780 | 26826 ft | 468 kts | 8° |
| 2026-05-05 18:15 | 37.45681 | -9.56874 | 25952 ft | 460 kts | 9° |
| 2026-05-05 18:15 | 37.48755 | -9.55990 | 25500 ft | 446 kts | 9° |
| 2026-05-05 18:16 | 37.51769 | -9.55123 | 25286 ft | 456 kts | 9° |
| 2026-05-05 18:16 | 37.54879 | -9.54226 | 25185 ft | 460 kts | 9° |
| 2026-05-05 18:16 | 37.57997 | -9.53325 | 24854 ft | 459 kts | 9° |
| 2026-05-05 18:16 | 37.61096 | -9.52429 | 24317 ft | 453 kts | 9° |
| 2026-05-05 18:17 | 37.64152 | -9.51550 | 23732 ft | 447 kts | 9° |
| 2026-05-05 18:17 | 37.67165 | -9.50674 | 23063 ft | 442 kts | 9° |
| 2026-05-05 18:17 | 37.70142 | -9.49816 | 22395 ft | 438 kts | 9° |
| 2026-05-05 18:17 | 37.73100 | -9.48955 | 21738 ft | 433 kts | 10° |
| 2026-05-05 18:18 | 37.76021 | -9.48111 | 21098 ft | 429 kts | 10° |
| 2026-05-05 18:18 | 37.78913 | -9.47268 | 20566 ft | 424 kts | 10° |
| 2026-05-05 18:18 | 37.81781 | -9.46439 | 20086 ft | 421 kts | 10° |
| 2026-05-05 18:18 | 37.84631 | -9.45606 | 19605 ft | 418 kts | 10° |
| 2026-05-05 18:19 | 37.87411 | -9.44802 | 19136 ft | 415 kts | 9° |
| 2026-05-05 18:19 | 37.90221 | -9.43981 | 18668 ft | 412 kts | 10° |
| 2026-05-05 18:19 | 37.93004 | -9.43173 | 18169 ft | 409 kts | 9° |
| 2026-05-05 18:19 | 37.95757 | -9.42368 | 17646 ft | 405 kts | 9° |
| 2026-05-05 18:20 | 37.98492 | -9.41570 | 17121 ft | 400 kts | 9° |
| 2026-05-05 18:20 | 38.00283 | -9.41048 | 16783 ft | 398 kts | 9° |
| 2026-05-05 18:20 | 38.03869 | -9.40003 | 16099 ft | 393 kts | 9° |
| 2026-05-05 18:20 | 38.06513 | -9.39223 | 15578 ft | 388 kts | 10° |
| 2026-05-05 18:21 | 38.08253 | -9.38719 | 15171 ft | 386 kts | 11° |
| 2026-05-05 18:21 | 38.11729 | -9.37698 | 14362 ft | 379 kts | 9° |
| 2026-05-05 18:21 | 38.13422 | -9.37199 | 13957 ft | 376 kts | 9° |
| 2026-05-05 18:21 | 38.15954 | -9.36470 | 13320 ft | 373 kts | 10° |
| 2026-05-05 18:22 | 38.19270 | -9.35482 | 12455 ft | 366 kts | 11° |
| 2026-05-05 18:22 | 38.21749 | -9.34760 | 11826 ft | 366 kts | 9° |
| 2026-05-05 18:22 | 38.24202 | -9.34025 | 11319 ft | 358 kts | 10° |
| 2026-05-05 18:22 | 38.25844 | -9.33551 | 10972 ft | 359 kts | 9° |
| 2026-05-05 18:23 | 38.28203 | -9.32861 | 10472 ft | 347 kts | 10° |
| 2026-05-05 18:23 | 38.30512 | -9.32175 | 9962 ft | 335 kts | 11° |
| 2026-05-05 18:23 | 38.32661 | -9.31547 | 9358 ft | 301 kts | 11° |
| 2026-05-05 18:23 | 38.34616 | -9.30971 | 8803 ft | 275 kts | 11° |
| 2026-05-05 18:24 | 38.36427 | -9.30437 | 8383 ft | 264 kts | 11° |
| 2026-05-05 18:24 | 38.38205 | -9.29918 | 7906 ft | 260 kts | 11° |
| 2026-05-05 18:24 | 38.39956 | -9.29395 | 7469 ft | 255 kts | 10° |
| 2026-05-05 18:24 | 38.41663 | -9.28893 | 7071 ft | 249 kts | 10° |
| 2026-05-05 18:25 | 38.43342 | -9.28402 | 6681 ft | 245 kts | 11° |
| 2026-05-05 18:25 | 38.44435 | -9.28076 | 6417 ft | 242 kts | 11° |
| 2026-05-05 18:25 | 38.46603 | -9.27427 | 5874 ft | 236 kts | 11° |
| 2026-05-05 18:25 | 38.48181 | -9.27075 | 5481 ft | 231 kts | 2° |
| 2026-05-05 18:26 | 38.49772 | -9.27182 | 5089 ft | 228 kts | 349° |
| 2026-05-05 18:26 | 38.51314 | -9.27484 | 4769 ft | 221 kts | 1° |
| 2026-05-05 18:26 | 38.52782 | -9.27036 | 4502 ft | 216 kts | 20° |
| 2026-05-05 18:26 | 38.54156 | -9.26331 | 4235 ft | 209 kts | 18° |
| 2026-05-05 18:27 | 38.55495 | -9.25696 | 4130 ft | 202 kts | 20° |
| 2026-05-05 18:27 | 38.56772 | -9.25000 | 4035 ft | 196 kts | 20° |
| 2026-05-05 18:27 | 38.58012 | -9.24343 | 4036 ft | 194 kts | 20° |
| 2026-05-05 18:27 | 38.59262 | -9.23682 | 4002 ft | 199 kts | 20° |
| 2026-05-05 18:28 | 38.61843 | -9.22304 | 3441 ft | 201 kts | 20° |
| 2026-05-05 18:28 | 38.63177 | -9.21593 | 3217 ft | 221 kts | 20° |
| 2026-05-05 18:28 | 38.64562 | -9.20852 | 2956 ft | 216 kts | 20° |
| 2026-05-05 18:29 | 38.65936 | -9.20119 | 2666 ft | 211 kts | 20° |
| 2026-05-05 18:29 | 38.67245 | -9.19415 | 2358 ft | 197 kts | 19° |
| 2026-05-05 18:29 | 38.68496 | -9.18755 | 2173 ft | 190 kts | 19° |
| 2026-05-05 18:29 | 38.69691 | -9.18113 | 1912 ft | 184 kts | 19° |
| 2026-05-05 18:30 | 38.70849 | -9.17495 | 1645 ft | 175 kts | 19° |
| 2026-05-05 18:30 | 38.71929 | -9.16913 | 1405 ft | 161 kts | 19° |
| 2026-05-05 18:30 | 38.72920 | -9.16386 | 1211 ft | 148 kts | 18° |
| 2026-05-05 18:30 | 38.73816 | -9.15901 | 1049 ft | 130 kts | 17° |
| 2026-05-05 18:31 | 38.74613 | -9.15473 | 829 ft | 118 kts | 15° |
| 2026-05-05 18:31 | 38.75365 | -9.15100 | 667 ft | 116 kts | 19° |
| 2026-05-05 18:31 | 38.76078 | -9.14680 | 467 ft | 112 kts | 13° |
| 2026-05-05 18:31 | 38.76731 | -9.14140 | 546 ft | 119 kts | 30° |
| 2026-05-05 18:32 | 38.77489 | -9.13515 | 1092 ft | 137 kts | 23° |
| 2026-05-05 18:32 | 38.78426 | -9.13024 | 1743 ft | 152 kts | 16° |
| 2026-05-05 18:32 | 38.79486 | -9.12528 | 2205 ft | 166 kts | 16° |
| 2026-05-05 18:32 | 38.80519 | -9.12011 | 2788 ft | 169 kts | 17° |
| 2026-05-05 18:33 | 38.81637 | -9.11307 | 3026 ft | 194 kts | 35° |
| 2026-05-05 18:33 | 38.82379 | -9.09807 | 3314 ft | 210 kts | 69° |
| 2026-05-05 18:33 | 38.82693 | -9.07797 | 3520 ft | 249 kts | 81° |
| 2026-05-05 18:33 | 38.82352 | -9.05600 | 4914 ft | 253 kts | 116° |
| 2026-05-05 18:34 | 38.81231 | -9.03945 | 5818 ft | 239 kts | 144° |
| 2026-05-05 18:34 | 38.79765 | -9.03038 | 5931 ft | 249 kts | 157° |
| 2026-05-05 18:34 | 38.78162 | -9.02212 | 6021 ft | 250 kts | 158° |
| 2026-05-05 18:34 | 38.76538 | -9.01403 | 6070 ft | 251 kts | 158° |
| 2026-05-05 18:35 | 38.74907 | -9.00601 | 6082 ft | 252 kts | 159° |
| 2026-05-05 18:35 | 38.73242 | -8.99787 | 6086 ft | 258 kts | 159° |
| 2026-05-05 18:35 | 38.71555 | -8.99053 | 6070 ft | 255 kts | 169° |
| 2026-05-05 18:35 | 38.69843 | -8.99161 | 6067 ft | 248 kts | 201° |
| 2026-05-05 18:36 | 38.68218 | -8.99982 | 6088 ft | 247 kts | 206° |
| 2026-05-05 18:36 | 38.66763 | -9.01153 | 5693 ft | 252 kts | 227° |
| 2026-05-05 18:36 | 38.65719 | -9.02929 | 5288 ft | 248 kts | 249° |
| 2026-05-05 18:36 | 38.65301 | -9.05004 | 5002 ft | 239 kts | 271° |
| 2026-05-05 18:37 | 38.65475 | -9.07070 | 4739 ft | 230 kts | 287° |
| 2026-05-05 18:37 | 38.65849 | -9.09012 | 4459 ft | 226 kts | 290° |
| 2026-05-05 18:37 | 38.66352 | -9.10868 | 4014 ft | 216 kts | 296° |
| 2026-05-05 18:37 | 38.66984 | -9.12549 | 3562 ft | 208 kts | 304° |
| 2026-05-05 18:38 | 38.67762 | -9.14078 | 3331 ft | 199 kts | 310° |
| 2026-05-05 18:38 | 38.68653 | -9.15361 | 3047 ft | 187 kts | 320° |
| 2026-05-05 18:38 | 38.69650 | -9.16374 | 2578 ft | 181 kts | 329° |
| 2026-05-05 18:38 | 38.70736 | -9.17021 | 2181 ft | 167 kts | 344° |
| 2026-05-05 18:39 | 38.71863 | -9.17065 | 1749 ft | 161 kts | 13° |
| 2026-05-05 18:39 | 38.72818 | -9.16458 | 1399 ft | 149 kts | 24° |
| 2026-05-05 18:39 | 38.73729 | -9.15920 | 1072 ft | 140 kts | 15° |
| 2026-05-05 18:39 | 38.74580 | -9.15479 | 852 ft | 126 kts | 18° |
| 2026-05-05 18:40 | 38.75365 | -9.15055 | 666 ft | 118 kts | 17° |
| 2026-05-05 18:40 | 38.76144 | -9.14653 | 491 ft | 123 kts | 14° |
| 2026-05-05 18:40 | 38.76952 | -9.14229 | 361 ft | 124 kts | 19° |
| 2026-05-05 18:40 | 38.77646 | -9.13868 | 366 ft | 95 kts | 23° |
| 2026-05-05 18:41 | 38.78115 | -9.13602 | 365 ft | 47 kts | 21° |
| 2026-05-05 18:41 | 38.78339 | -9.13400 | 362 ft | 25 kts | 47° |
| 2026-05-05 18:41 | 38.78341 | -9.13271 | 362 ft | 18 kts | 168° |
| 2026-05-05 18:41 | 38.78208 | -9.13319 | 357 ft | 21 kts | 202° |
| 2026-05-05 18:42 | 38.78084 | -9.13387 | 356 ft | 11 kts | 203° |
| 2026-05-05 18:42 | 38.77996 | -9.13405 | 358 ft | 16 kts | 172° |
| 2026-05-05 18:42 | 38.77868 | -9.13371 | 347 ft | 20 kts | 167° |
| 2026-05-05 18:42 | 38.77796 | -9.13338 | 343 ft | 7 kts | 109° |
| 2026-05-05 18:43 | 38.77796 | -9.13278 | 336 ft | 2 kts | 79° |
| 2026-05-05 18:43 | 38.77799 | -9.13263 | 334 ft | 0 kts | 74° |